Time;durP1;ratioP1;P1;durP2;ratioP2;P2;SDS_P1;SDS_P2;PMS_P1;PMS_P2;Temp;Humidity;BMP_temperature;BMP_pressure;BME280_temperature;BME280_humidity;BME280_pressure;Samples;Min_cycle;Max_cycle;Signal;HPM_P1;HPM_P2
2023/07/30 00:00:01;;;;;;;6.40;1.63;;;;;;;;;;4997613;28;20027;-77
2023/07/30 00:02:26;;;;;;;4.85;1.70;;;;;;;;;;4994574;28;20037;-77
2023/07/30 00:04:51;;;;;;;5.50;1.92;;;;;;;;;;4997938;28;20029;-77
2023/07/30 00:07:17;;;;;;;5.85;2.22;;;;;;;;;;4992649;28;20023;-78
2023/07/30 00:09:42;;;;;;;6.65;1.70;;;;;;;;;;4997120;28;20053;-78
2023/07/30 00:12:08;;;;;;;4.75;1.65;;;;;;;;;;5000510;28;20092;-77
2023/07/30 00:14:34;;;;;;;6.60;2.10;;;;;;;;;;5010319;28;20385;-77
2023/07/30 00:17:00;;;;;;;5.35;1.77;;;;;;;;;;4998268;28;20037;-77
2023/07/30 00:19:25;;;;;;;5.35;2.00;;;;;;;;;;5000379;28;20025;-77
2023/07/30 00:21:51;;;;;;;7.82;1.80;;;;;;;;;;4998781;28;20435;-78
2023/07/30 00:24:16;;;;;;;5.65;2.30;;;;;;;;;;5002266;28;20108;-77
2023/07/30 00:26:42;;;;;;;6.15;1.65;;;;;;;;;;4992944;28;20026;-79
2023/07/30 00:29:07;;;;;;;6.43;2.30;;;;;;;;;;4991784;28;20084;-77
2023/07/30 00:31:32;;;;;;;3.92;1.75;;;;;;;;;;4985984;28;20026;-77
2023/07/30 00:33:58;;;;;;;4.80;1.83;;;;;;;;;;5005189;28;20498;-77
2023/07/30 00:36:23;;;;;;;5.32;2.20;;;;;;;;;;5007329;28;20080;-77
2023/07/30 00:38:49;;;;;;;5.38;2.20;;;;;;;;;;5004192;28;20030;-77
2023/07/30 00:41:14;;;;;;;8.23;2.25;;;;;;;;;;4996537;28;20482;-77
2023/07/30 00:43:39;;;;;;;5.60;2.10;;;;;;;;;;4998264;28;20026;-77
2023/07/30 00:46:05;;;;;;;9.55;2.20;;;;;;;;;;4994728;28;20026;-78
2023/07/30 00:48:31;;;;;;;3.78;1.70;;;;;;;;;;4999303;28;20014;-77
2023/07/30 00:50:57;;;;;;;5.72;2.10;;;;;;;;;;5000831;28;20105;-77
2023/07/30 00:53:24;;;;;;;6.68;2.10;;;;;;;;;;4999698;28;20026;-77
2023/07/30 00:55:49;;;;;;;4.07;2.00;;;;;;;;;;5001088;28;20116;-77
2023/07/30 00:58:15;;;;;;;5.35;1.92;;;;;;;;;;5000999;28;20049;-77
2023/07/30 01:00:41;;;;;;;5.22;1.92;;;;;;;;;;5000955;28;20037;-78
2023/07/30 01:03:06;;;;;;;7.15;2.00;;;;;;;;;;5007658;28;20026;-77
2023/07/30 01:05:33;;;;;;;3.92;1.73;;;;;;;;;;5002659;28;20068;-77
2023/07/30 01:07:58;;;;;;;4.95;2.00;;;;;;;;;;4995659;28;20058;-78
2023/07/30 01:10:24;;;;;;;6.80;2.30;;;;;;;;;;4999914;28;20053;-77
2023/07/30 01:12:51;;;;;;;7.45;2.00;;;;;;;;;;5000436;28;20038;-77
2023/07/30 01:15:17;;;;;;;3.85;1.83;;;;;;;;;;4994764;28;20026;-77
2023/07/30 01:17:42;;;;;;;7.63;1.85;;;;;;;;;;5002028;28;20028;-77
2023/07/30 01:20:10;;;;;;;6.47;2.08;;;;;;;;;;4994712;28;20030;-77
2023/07/30 01:22:35;;;;;;;5.38;2.17;;;;;;;;;;4997393;28;20105;-77
2023/07/30 01:25:01;;;;;;;4.25;2.00;;;;;;;;;;4990779;28;20109;-77
2023/07/30 01:27:30;;;;;;;7.32;2.33;;;;;;;;;;5001237;28;20091;-77
2023/07/30 01:30:06;;;;;;;8.18;2.22;;;;;;;;;;4991725;28;20022;-78
2023/07/30 01:32:33;;;;;;;8.68;2.00;;;;;;;;;;5003662;28;20105;-77
2023/07/30 01:35:00;;;;;;;5.90;2.00;;;;;;;;;;5000437;28;20141;-78
2023/07/30 01:37:26;;;;;;;5.40;2.38;;;;;;;;;;5014108;28;20073;-77
2023/07/30 01:39:53;;;;;;;7.80;2.38;;;;;;;;;;5001198;28;20054;-77
2023/07/30 01:42:18;;;;;;;6.55;2.00;;;;;;;;;;5004059;28;20026;-77
2023/07/30 01:44:43;;;;;;;7.53;2.38;;;;;;;;;;5008768;28;20473;-77
2023/07/30 01:47:09;;;;;;;4.32;1.80;;;;;;;;;;5004613;28;20025;-77
2023/07/30 01:49:34;;;;;;;5.95;2.22;;;;;;;;;;5007870;28;20108;-77
2023/07/30 01:52:00;;;;;;;4.88;2.03;;;;;;;;;;4997992;28;20026;-77
2023/07/30 01:54:25;;;;;;;7.22;2.00;;;;;;;;;;5000837;28;20030;-78
2023/07/30 01:56:51;;;;;;;6.38;1.80;;;;;;;;;;4998060;28;20062;-78
2023/07/30 01:59:17;;;;;;;7.90;2.20;;;;;;;;;;4999704;28;20422;-78
2023/07/30 02:01:43;;;;;;;6.63;2.10;;;;;;;;;;5004709;28;20383;-77
2023/07/30 02:04:08;;;;;;;4.10;2.20;;;;;;;;;;4999037;28;20501;-77
2023/07/30 02:06:34;;;;;;;9.82;2.47;;;;;;;;;;4999081;28;20053;-77
2023/07/30 02:08:59;;;;;;;7.95;2.10;;;;;;;;;;4999971;28;20537;-77
2023/07/30 02:11:24;;;;;;;6.30;2.33;;;;;;;;;;4992289;28;20049;-77
2023/07/30 02:13:50;;;;;;;4.80;2.08;;;;;;;;;;4998144;28;20049;-77
2023/07/30 02:16:15;;;;;;;10.90;2.85;;;;;;;;;;5000315;28;20430;-78
2023/07/30 02:18:41;;;;;;;5.53;2.33;;;;;;;;;;5001527;28;20031;-77
2023/07/30 02:21:06;;;;;;;6.00;2.40;;;;;;;;;;5006441;28;20500;-78
2023/07/30 02:23:32;;;;;;;10.95;3.10;;;;;;;;;;4994195;28;20023;-77
2023/07/30 02:25:57;;;;;;;8.07;2.30;;;;;;;;;;4998592;28;20511;-77
2023/07/30 02:28:22;;;;;;;7.43;2.78;;;;;;;;;;5004194;28;20026;-77
2023/07/30 02:30:48;;;;;;;7.50;2.60;;;;;;;;;;4991863;28;20033;-77
2023/07/30 02:33:13;;;;;;;6.70;2.75;;;;;;;;;;4997861;28;20022;-78
2023/07/30 02:35:39;;;;;;;9.57;3.17;;;;;;;;;;5007557;28;20100;-78
2023/07/30 02:38:04;;;;;;;7.45;2.78;;;;;;;;;;4994818;28;20463;-77
2023/07/30 02:40:31;;;;;;;8.30;3.30;;;;;;;;;;4996151;28;20176;-78
2023/07/30 02:42:57;;;;;;;8.05;3.30;;;;;;;;;;4990212;28;20581;-77
2023/07/30 02:45:22;;;;;;;9.43;3.25;;;;;;;;;;4993671;28;20062;-77
2023/07/30 02:47:48;;;;;;;9.20;3.13;;;;;;;;;;4996275;28;20405;-77
2023/07/30 02:50:13;;;;;;;7.50;3.05;;;;;;;;;;4996162;28;20026;-77
2023/07/30 02:52:38;;;;;;;8.75;3.53;;;;;;;;;;4984656;28;20030;-77
2023/07/30 02:55:04;;;;;;;9.52;3.00;;;;;;;;;;4995528;28;20438;-77
2023/07/30 02:57:30;;;;;;;7.40;2.85;;;;;;;;;;5001762;28;20061;-77
2023/07/30 02:59:55;;;;;;;8.57;3.10;;;;;;;;;;4995132;28;20145;-77
2023/07/30 03:02:20;;;;;;;10.18;3.13;;;;;;;;;;4995760;28;20529;-78
2023/07/30 03:04:46;;;;;;;7.30;3.30;;;;;;;;;;5000774;28;20025;-78
2023/07/30 03:07:11;;;;;;;9.15;3.42;;;;;;;;;;4993140;28;20010;-76
2023/07/30 03:09:37;;;;;;;9.65;3.40;;;;;;;;;;4994343;28;20027;-78
2023/07/30 03:12:02;;;;;;;10.40;3.08;;;;;;;;;;5000897;28;20385;-78
2023/07/30 03:14:29;;;;;;;9.90;3.22;;;;;;;;;;4994744;28;20030;-76
2023/07/30 03:16:54;;;;;;;8.13;3.50;;;;;;;;;;4999389;28;20030;-77
2023/07/30 03:19:20;;;;;;;7.28;3.33;;;;;;;;;;4997233;28;20121;-76
2023/07/30 03:21:45;;;;;;;9.55;3.25;;;;;;;;;;4997966;28;20030;-77
2023/07/30 03:24:10;;;;;;;10.55;3.88;;;;;;;;;;4998592;28;20025;-77
2023/07/30 03:26:36;;;;;;;13.98;3.58;;;;;;;;;;4999429;28;20616;-77
2023/07/30 03:29:01;;;;;;;10.30;3.30;;;;;;;;;;4997504;28;20029;-77
2023/07/30 03:31:28;;;;;;;8.25;3.38;;;;;;;;;;4995298;28;20602;-76
2023/07/30 03:33:53;;;;;;;12.13;3.53;;;;;;;;;;4994518;28;20026;-77
2023/07/30 03:36:19;;;;;;;7.43;3.13;;;;;;;;;;5003124;28;20057;-77
2023/07/30 03:38:44;;;;;;;6.82;3.10;;;;;;;;;;5001500;28;20034;-77
2023/07/30 03:41:10;;;;;;;11.05;3.75;;;;;;;;;;4998100;28;20371;-77
2023/07/30 03:43:36;;;;;;;8.43;3.22;;;;;;;;;;4999706;28;20030;-78
2023/07/30 03:46:02;;;;;;;5.88;3.20;;;;;;;;;;4996499;28;20057;-77
2023/07/30 03:48:28;;;;;;;10.02;3.47;;;;;;;;;;5006926;28;20297;-77
2023/07/30 03:50:54;;;;;;;11.65;3.38;;;;;;;;;;4996498;28;20073;-77
2023/07/30 03:53:20;;;;;;;13.43;3.45;;;;;;;;;;4996762;28;20385;-78
2023/07/30 03:55:45;;;;;;;9.48;3.17;;;;;;;;;;4989406;28;20125;-76
2023/07/30 03:58:11;;;;;;;8.50;3.25;;;;;;;;;;4997818;28;20029;-77
2023/07/30 04:00:36;;;;;;;7.97;3.25;;;;;;;;;;5001495;28;20882;-77
2023/07/30 04:03:02;;;;;;;12.75;4.03;;;;;;;;;;5002803;28;20029;-77
2023/07/30 04:05:27;;;;;;;12.20;4.00;;;;;;;;;;5002182;28;20037;-77
2023/07/30 04:07:53;;;;;;;9.02;3.65;;;;;;;;;;4992116;28;20030;-77
2023/07/30 04:10:18;;;;;;;8.25;3.38;;;;;;;;;;4995704;28;20110;-77
2023/07/30 04:12:44;;;;;;;7.93;3.45;;;;;;;;;;4999642;28;20485;-77
2023/07/30 04:15:10;;;;;;;9.40;3.33;;;;;;;;;;4996844;28;20029;-77
2023/07/30 04:17:37;;;;;;;8.80;3.58;;;;;;;;;;5005333;28;20022;-77
2023/07/30 04:20:04;;;;;;;6.85;3.30;;;;;;;;;;5002142;28;20414;-77
2023/07/30 04:22:29;;;;;;;10.27;3.80;;;;;;;;;;5008338;28;20133;-77
2023/07/30 04:24:55;;;;;;;10.15;3.40;;;;;;;;;;5000030;28;20623;-77
2023/07/30 04:27:20;;;;;;;8.65;3.40;;;;;;;;;;4996408;28;20042;-77
2023/07/30 04:29:46;;;;;;;13.00;4.07;;;;;;;;;;5000882;28;20026;-77
2023/07/30 04:32:11;;;;;;;9.45;3.47;;;;;;;;;;4993146;28;20081;-77
2023/07/30 04:34:38;;;;;;;10.48;3.97;;;;;;;;;;5004207;28;20037;-77
2023/07/30 04:37:04;;;;;;;8.55;3.65;;;;;;;;;;5003400;28;20026;-77
2023/07/30 04:39:31;;;;;;;12.20;4.00;;;;;;;;;;4995909;28;20022;-77
2023/07/30 04:41:57;;;;;;;8.57;3.67;;;;;;;;;;4996362;28;20029;-77
2023/07/30 04:44:22;;;;;;;11.20;4.38;;;;;;;;;;4995813;28;20022;-77
2023/07/30 04:46:48;;;;;;;11.90;4.43;;;;;;;;;;5002089;28;20421;-77
2023/07/30 04:49:13;;;;;;;13.55;4.22;;;;;;;;;;5004556;28;20031;-78
2023/07/30 04:51:38;;;;;;;10.23;4.30;;;;;;;;;;5004829;28;20481;-77
2023/07/30 04:54:04;;;;;;;13.38;4.63;;;;;;;;;;4998104;28;20022;-77
2023/07/30 04:56:29;;;;;;;14.10;4.47;;;;;;;;;;5003270;28;20465;-77
2023/07/30 04:58:55;;;;;;;14.98;4.40;;;;;;;;;;5000757;28;20031;-77
2023/07/30 05:01:20;;;;;;;11.30;4.47;;;;;;;;;;4998378;28;20018;-77
2023/07/30 05:03:46;;;;;;;10.43;4.55;;;;;;;;;;4999671;28;20034;-77
2023/07/30 05:06:11;;;;;;;13.65;4.15;;;;;;;;;;5002820;28;20409;-77
2023/07/30 05:08:36;;;;;;;10.00;3.97;;;;;;;;;;4997565;28;20027;-77
2023/07/30 05:11:02;;;;;;;12.70;4.57;;;;;;;;;;5005656;28;20120;-77
2023/07/30 05:13:27;;;;;;;10.43;4.57;;;;;;;;;;5006667;28;20034;-91
2023/07/30 05:15:52;;;;;;;12.20;4.95;;;;;;;;;;5002245;28;20148;-91
2023/07/30 05:18:18;;;;;;;10.07;4.78;;;;;;;;;;4990245;28;20036;-91
2023/07/30 05:20:46;;;;;;;13.35;5.18;;;;;;;;;;5010826;28;20038;-91
2023/07/30 05:23:11;;;;;;;9.23;4.43;;;;;;;;;;5004174;28;20022;-90
2023/07/30 05:25:36;;;;;;;12.95;4.90;;;;;;;;;;5002795;28;20036;-92
2023/07/30 05:28:02;;;;;;;12.90;4.68;;;;;;;;;;5003336;28;20426;-92
2023/07/30 05:30:27;;;;;;;14.95;5.03;;;;;;;;;;5003873;28;20022;-92
2023/07/30 05:32:53;;;;;;;8.77;4.50;;;;;;;;;;5004210;28;20038;-92
2023/07/30 05:35:18;;;;;;;9.68;4.45;;;;;;;;;;4999300;28;20026;-91
2023/07/30 05:37:44;;;;;;;14.05;5.70;;;;;;;;;;5000688;28;20045;-91
2023/07/30 05:40:09;;;;;;;13.40;5.28;;;;;;;;;;4997006;28;20026;-91
2023/07/30 05:42:35;;;;;;;10.57;5.28;;;;;;;;;;4997057;28;20118;-93
2023/07/30 05:45:00;;;;;;;15.50;5.88;;;;;;;;;;5003047;28;20535;-90
2023/07/30 05:47:26;;;;;;;14.57;5.60;;;;;;;;;;5003618;28;20026;-92
2023/07/30 05:49:51;;;;;;;14.18;5.07;;;;;;;;;;5002276;28;20080;-93
2023/07/30 05:52:16;;;;;;;10.30;4.78;;;;;;;;;;4999127;28;20037;-90
2023/07/30 05:54:42;;;;;;;9.32;5.40;;;;;;;;;;4989328;28;20029;-92
2023/07/30 05:57:07;;;;;;;14.57;5.32;;;;;;;;;;5007491;28;20134;-91
2023/07/30 05:59:33;;;;;;;14.35;4.97;;;;;;;;;;5000113;28;20062;-92
2023/07/30 06:02:02;;;;;;;15.43;6.07;;;;;;;;;;5000935;28;20057;-92
2023/07/30 06:04:28;;;;;;;11.65;5.68;;;;;;;;;;4995300;28;20121;-92
2023/07/30 06:06:54;;;;;;;10.90;5.65;;;;;;;;;;4995221;28;20057;-91
2023/07/30 06:09:19;;;;;;;15.30;6.57;;;;;;;;;;4999703;28;20037;-92
2023/07/30 06:11:45;;;;;;;13.98;5.68;;;;;;;;;;5003400;28;20053;-92
2023/07/30 06:14:10;;;;;;;15.07;6.20;;;;;;;;;;5004771;28;20076;-92
2023/07/30 06:16:35;;;;;;;11.38;5.53;;;;;;;;;;5004231;28;20033;-92
2023/07/30 06:19:01;;;;;;;15.18;6.03;;;;;;;;;;4995930;28;20034;-92
2023/07/30 06:21:26;;;;;;;12.35;6.03;;;;;;;;;;4994012;28;20023;-92
2023/07/30 06:23:52;;;;;;;12.50;5.97;;;;;;;;;;4991766;28;20034;-92
2023/07/30 06:26:17;;;;;;;17.50;7.05;;;;;;;;;;5007124;28;20038;-86
2023/07/30 06:28:42;;;;;;;19.02;8.00;;;;;;;;;;4997708;28;20105;-90
2023/07/30 06:31:08;;;;;;;13.27;6.25;;;;;;;;;;4996182;28;20035;-91
2023/07/30 06:33:33;;;;;;;13.38;6.63;;;;;;;;;;5002558;28;20060;-93
2023/07/30 06:35:59;;;;;;;15.50;6.95;;;;;;;;;;5012148;28;20030;-92
2023/07/30 06:38:24;;;;;;;15.55;7.57;;;;;;;;;;5003257;28;20058;-91
2023/07/30 06:40:50;;;;;;;11.60;6.68;;;;;;;;;;4997835;28;20028;-92
2023/07/30 06:43:15;;;;;;;11.90;7.28;;;;;;;;;;5009560;28;20018;-92
2023/07/30 06:45:40;;;;;;;17.90;7.80;;;;;;;;;;4999780;28;20069;-92
2023/07/30 06:48:06;;;;;;;15.77;7.85;;;;;;;;;;5000701;28;20022;-92
2023/07/30 06:50:31;;;;;;;12.93;6.72;;;;;;;;;;5004043;28;20034;-92
2023/07/30 06:52:56;;;;;;;13.38;6.30;;;;;;;;;;5003432;28;20030;-90
2023/07/30 06:55:22;;;;;;;15.80;6.78;;;;;;;;;;5003886;28;20494;-89
2023/07/30 06:57:47;;;;;;;12.13;6.25;;;;;;;;;;4997610;28;20026;-91
2023/07/30 07:00:14;;;;;;;17.00;7.40;;;;;;;;;;4995108;28;20482;-92
2023/07/30 07:02:40;;;;;;;17.83;6.68;;;;;;;;;;4992211;28;20176;-92
2023/07/30 07:05:05;;;;;;;12.05;5.82;;;;;;;;;;4977486;28;20105;-90
2023/07/30 07:07:31;;;;;;;16.40;6.63;;;;;;;;;;4989045;28;20050;-91
2023/07/30 07:09:56;;;;;;;14.82;6.05;;;;;;;;;;5000415;28;20080;-90
2023/07/30 07:12:21;;;;;;;14.88;5.78;;;;;;;;;;4992003;28;20121;-92
2023/07/30 07:14:48;;;;;;;17.40;5.85;;;;;;;;;;5003228;28;20030;-91
2023/07/30 07:17:13;;;;;;;11.20;5.55;;;;;;;;;;4974069;28;20030;-91
2023/07/30 07:19:38;;;;;;;10.95;5.03;;;;;;;;;;4992574;28;20030;-91
2023/07/30 07:22:04;;;;;;;11.48;4.40;;;;;;;;;;4997233;28;20393;-92
2023/07/30 07:24:30;;;;;;;13.88;4.70;;;;;;;;;;5001031;28;20022;-91
2023/07/30 07:26:56;;;;;;;12.35;5.10;;;;;;;;;;4996337;28;20034;-93
2023/07/30 07:29:22;;;;;;;16.48;5.20;;;;;;;;;;4999706;28;20029;-91
2023/07/30 07:31:47;;;;;;;18.65;5.60;;;;;;;;;;4999454;28;20509;-92
2023/07/30 07:34:12;;;;;;;11.48;4.85;;;;;;;;;;4999918;28;20021;-77
2023/07/30 07:36:38;;;;;;;14.80;5.20;;;;;;;;;;5000071;28;20485;-77
2023/07/30 07:39:03;;;;;;;13.30;5.10;;;;;;;;;;4990965;28;20019;-77
2023/07/30 07:41:29;;;;;;;13.82;5.85;;;;;;;;;;4998460;28;20041;-77
2023/07/30 07:43:54;;;;;;;14.98;5.95;;;;;;;;;;4988759;28;20049;-76
2023/07/30 07:46:20;;;;;;;14.30;5.55;;;;;;;;;;4997583;28;20029;-77
2023/07/30 07:48:45;;;;;;;22.48;5.80;;;;;;;;;;4999242;28;20109;-77
2023/07/30 07:51:11;;;;;;;18.20;5.97;;;;;;;;;;4996865;28;20080;-77
2023/07/30 07:53:37;;;;;;;13.77;5.70;;;;;;;;;;4997750;28;20022;-78
2023/07/30 07:56:03;;;;;;;17.25;5.55;;;;;;;;;;4998729;28;20478;-78
2023/07/30 07:58:29;;;;;;;13.77;6.18;;;;;;;;;;4994708;28;20061;-77
2023/07/30 08:00:55;;;;;;;11.57;5.03;;;;;;;;;;4999771;28;20022;-77
2023/07/30 08:03:21;;;;;;;13.23;4.45;;;;;;;;;;4993596;28;20124;-77
2023/07/30 08:05:47;;;;;;;17.77;5.85;;;;;;;;;;4992879;28;20105;-77
2023/07/30 08:08:12;;;;;;;16.83;5.47;;;;;;;;;;4994379;28;20049;-77
2023/07/30 08:10:39;;;;;;;14.30;5.70;;;;;;;;;;4995674;28;20038;-77
2023/07/30 08:13:04;;;;;;;14.75;5.13;;;;;;;;;;4994972;28;20054;-77
2023/07/30 08:15:30;;;;;;;10.40;5.00;;;;;;;;;;4993069;28;20081;-78
2023/07/30 08:17:55;;;;;;;14.02;5.30;;;;;;;;;;4995924;28;20023;-77
2023/07/30 08:20:21;;;;;;;12.45;5.35;;;;;;;;;;4996537;28;20026;-77
2023/07/30 08:22:46;;;;;;;10.98;4.65;;;;;;;;;;5002969;28;20475;-77
2023/07/30 08:25:11;;;;;;;12.65;4.57;;;;;;;;;;5000881;28;20080;-77
2023/07/30 08:27:37;;;;;;;15.00;4.63;;;;;;;;;;4998197;28;20129;-77
2023/07/30 08:30:02;;;;;;;13.93;3.88;;;;;;;;;;4995848;28;20497;-77
2023/07/30 08:32:28;;;;;;;15.00;4.05;;;;;;;;;;4994189;28;20429;-77
2023/07/30 08:34:53;;;;;;;13.10;3.95;;;;;;;;;;4996399;28;20018;-78
2023/07/30 08:37:18;;;;;;;11.77;3.90;;;;;;;;;;5000757;28;20390;-78
2023/07/30 08:39:44;;;;;;;11.43;3.67;;;;;;;;;;5000155;28;20108;-78
2023/07/30 08:42:09;;;;;;;12.93;4.32;;;;;;;;;;5007000;28;20482;-77
2023/07/30 08:44:35;;;;;;;16.23;4.07;;;;;;;;;;4997730;28;20026;-77
2023/07/30 08:47:00;;;;;;;11.73;3.92;;;;;;;;;;5006829;28;20549;-78
2023/07/30 08:49:28;;;;;;;10.70;4.00;;;;;;;;;;5004761;28;20022;-77
2023/07/30 08:51:54;;;;;;;13.00;4.25;;;;;;;;;;4995385;28;20030;-76
2023/07/30 08:54:20;;;;;;;11.38;3.55;;;;;;;;;;5013231;28;20029;-79
2023/07/30 08:56:48;;;;;;;9.60;4.28;;;;;;;;;;5008984;28;20030;-77
2023/07/30 08:59:15;;;;;;;19.50;5.20;;;;;;;;;;5005023;28;20109;-77
2023/07/30 09:01:41;;;;;;;9.52;4.20;;;;;;;;;;4993784;28;20438;-77
2023/07/30 09:04:06;;;;;;;13.70;4.25;;;;;;;;;;4994821;28;20026;-77
2023/07/30 09:06:32;;;;;;;11.82;3.88;;;;;;;;;;5003246;28;20028;-77
2023/07/30 09:08:58;;;;;;;11.23;3.88;;;;;;;;;;5002144;28;20080;-77
2023/07/30 09:11:27;;;;;;;9.02;3.95;;;;;;;;;;5002220;28;20079;-77
2023/07/30 09:13:55;;;;;;;14.35;4.05;;;;;;;;;;4995638;28;20434;-77
2023/07/30 09:16:25;;;;;;;9.38;3.65;;;;;;;;;;5003155;28;20054;-77
2023/07/30 09:18:52;;;;;;;14.10;4.13;;;;;;;;;;4997849;28;20485;-77
2023/07/30 09:21:18;;;;;;;8.82;3.90;;;;;;;;;;5001730;28;20351;-77
2023/07/30 09:23:46;;;;;;;15.25;3.90;;;;;;;;;;4999241;28;20026;-77
2023/07/30 09:26:12;;;;;;;10.75;3.30;;;;;;;;;;4999629;28;20398;-78
2023/07/30 09:28:38;;;;;;;10.85;3.42;;;;;;;;;;5003357;28;20030;-77
2023/07/30 09:31:07;;;;;;;7.50;2.95;;;;;;;;;;5001887;28;20052;-77
2023/07/30 09:33:34;;;;;;;9.38;3.10;;;;;;;;;;4999677;28;20437;-77
2023/07/30 09:36:03;;;;;;;8.38;3.03;;;;;;;;;;4997111;28;20057;-76
2023/07/30 09:38:33;;;;;;;9.65;2.65;;;;;;;;;;4998901;28;20034;-77
2023/07/30 09:41:02;;;;;;;10.57;3.60;;;;;;;;;;4999764;28;20022;-76
2023/07/30 09:43:37;;;;;;;8.05;3.53;;;;;;;;;;4998166;28;20022;-77
2023/07/30 09:46:04;;;;;;;9.25;3.10;;;;;;;;;;5002877;28;20030;-77
2023/07/30 09:48:31;;;;;;;9.68;2.35;;;;;;;;;;4996628;28;20053;-77
2023/07/30 09:50:59;;;;;;;8.18;1.95;;;;;;;;;;4990929;28;20026;-77
2023/07/30 09:53:25;;;;;;;5.53;1.42;;;;;;;;;;4998030;28;20504;-77
2023/07/30 09:55:50;;;;;;;5.10;1.27;;;;;;;;;;5002841;28;20026;-77
2023/07/30 09:58:16;;;;;;;2.65;1.02;;;;;;;;;;4990799;28;20106;-77
2023/07/30 10:00:44;;;;;;;4.30;1.38;;;;;;;;;;4995976;28;20018;-77
2023/07/30 10:03:12;;;;;;;5.82;1.40;;;;;;;;;;4995871;28;20402;-77
2023/07/30 10:05:39;;;;;;;4.55;1.13;;;;;;;;;;4999339;28;20030;-78
2023/07/30 10:08:11;;;;;;;5.55;1.40;;;;;;;;;;4996945;28;20014;-77
2023/07/30 10:10:36;;;;;;;4.95;1.30;;;;;;;;;;5001547;28;20030;-77
2023/07/30 10:13:06;;;;;;;5.82;1.50;;;;;;;;;;5004750;28;20088;-77
2023/07/30 10:15:37;;;;;;;5.72;1.40;;;;;;;;;;4997868;28;20386;-77
2023/07/30 10:18:02;;;;;;;5.70;1.67;;;;;;;;;;5003016;28;20023;-77
2023/07/30 10:20:29;;;;;;;5.50;1.50;;;;;;;;;;5004284;28;20030;-77
2023/07/30 10:22:56;;;;;;;3.53;1.25;;;;;;;;;;4994727;28;20058;-77
2023/07/30 10:25:45;;;;;;;5.10;1.50;;;;;;;;;;4997451;28;20022;-77
2023/07/30 10:28:29;;;;;;;8.07;2.00;;;;;;;;;;4999932;28;20025;-77
2023/07/30 10:31:03;;;;;;;4.13;1.40;;;;;;;;;;5011139;28;20091;-78
2023/07/30 10:33:46;;;;;;;5.15;1.75;;;;;;;;;;4994740;28;20104;-77
2023/07/30 10:36:12;;;;;;;4.97;1.40;;;;;;;;;;5006305;28;20084;-77
2023/07/30 10:38:39;;;;;;;5.95;1.50;;;;;;;;;;5008829;28;20069;-77
2023/07/30 10:41:06;;;;;;;6.25;1.70;;;;;;;;;;5001073;28;20105;-76
2023/07/30 10:43:37;;;;;;;8.95;2.35;;;;;;;;;;5004407;28;20477;-77
2023/07/30 10:46:03;;;;;;;6.28;1.60;;;;;;;;;;5002343;28;20030;-77
2023/07/30 10:48:37;;;;;;;4.50;1.50;;;;;;;;;;5001614;28;20422;-77
2023/07/30 10:51:05;;;;;;;6.80;1.73;;;;;;;;;;5000762;28;20060;-77
2023/07/30 10:53:31;;;;;;;5.93;1.92;;;;;;;;;;5006340;28;20022;-78
2023/07/30 10:56:01;;;;;;;7.75;1.95;;;;;;;;;;4996101;28;20037;-77
2023/07/30 10:58:28;;;;;;;8.13;2.15;;;;;;;;;;4999090;28;20061;-76
2023/07/30 11:00:54;;;;;;;7.32;1.63;;;;;;;;;;4995475;28;20026;-77
2023/07/30 11:03:20;;;;;;;6.47;1.63;;;;;;;;;;4998681;28;20536;-77
2023/07/30 11:05:48;;;;;;;5.53;1.90;;;;;;;;;;5002169;28;20022;-77
2023/07/30 11:08:15;;;;;;;6.80;2.03;;;;;;;;;;5006324;28;20093;-77
2023/07/30 11:10:47;;;;;;;6.38;1.75;;;;;;;;;;4994394;28;20026;-77
2023/07/30 11:13:13;;;;;;;7.27;2.20;;;;;;;;;;4995791;28;20022;-77
2023/07/30 11:15:45;;;;;;;6.72;1.90;;;;;;;;;;5001146;28;20033;-78
2023/07/30 11:18:13;;;;;;;5.55;2.03;;;;;;;;;;4995038;28;20046;-77
2023/07/30 11:20:39;;;;;;;8.50;1.67;;;;;;;;;;4999559;28;20900;-77
2023/07/30 11:23:20;;;;;;;5.95;2.00;;;;;;;;;;4994861;28;20097;-77
2023/07/30 11:25:50;;;;;;;5.90;1.50;;;;;;;;;;4999979;28;20025;-76
2023/07/30 11:28:28;;;;;;;6.57;2.17;;;;;;;;;;4993492;28;20023;-77
2023/07/30 11:30:53;;;;;;;5.20;1.45;;;;;;;;;;4997534;28;20085;-76
2023/07/30 11:33:19;;;;;;;3.55;1.40;;;;;;;;;;4996708;28;20070;-77
2023/07/30 11:35:45;;;;;;;5.60;1.45;;;;;;;;;;5000334;28;20108;-77
2023/07/30 11:38:11;;;;;;;5.20;1.60;;;;;;;;;;4997973;28;20537;-77
2023/07/30 11:40:36;;;;;;;8.45;1.60;;;;;;;;;;4997000;28;20387;-77
2023/07/30 11:43:03;;;;;;;8.10;1.88;;;;;;;;;;5001204;28;20022;-77
2023/07/30 11:45:29;;;;;;;6.00;1.40;;;;;;;;;;4999288;28;20034;-77
2023/07/30 11:48:08;;;;;;;5.75;1.15;;;;;;;;;;4993190;28;20094;-77
2023/07/30 11:50:47;;;;;;;4.63;1.00;;;;;;;;;;4995418;28;20470;-76
2023/07/30 11:53:13;;;;;;;5.43;1.13;;;;;;;;;;4997346;28;20040;-77
2023/07/30 11:55:39;;;;;;;4.78;1.40;;;;;;;;;;4998753;28;20034;-77
2023/07/30 11:58:06;;;;;;;2.97;0.90;;;;;;;;;;4998089;28;20053;-77
2023/07/30 12:00:32;;;;;;;3.85;1.00;;;;;;;;;;4992015;28;20047;-76
2023/07/30 12:03:05;;;;;;;4.45;1.15;;;;;;;;;;4997651;28;20037;-77
2023/07/30 12:05:36;;;;;;;4.13;1.10;;;;;;;;;;4990121;28;20026;-77
2023/07/30 12:08:03;;;;;;;5.47;1.00;;;;;;;;;;4996943;28;20041;-77
2023/07/30 12:10:43;;;;;;;5.65;0.70;;;;;;;;;;5005974;28;20118;-76
2023/07/30 12:13:26;;;;;;;8.05;1.13;;;;;;;;;;5005857;28;20026;-87
2023/07/30 12:15:52;;;;;;;2.85;0.93;;;;;;;;;;5006109;28;20025;-87
2023/07/30 12:18:18;;;;;;;3.13;0.85;;;;;;;;;;4997196;28;20037;-86
2023/07/30 12:20:44;;;;;;;2.67;0.80;;;;;;;;;;4992503;28;20018;-87
2023/07/30 12:23:10;;;;;;;3.85;0.98;;;;;;;;;;5006858;28;20018;-87
2023/07/30 12:25:35;;;;;;;3.90;0.93;;;;;;;;;;5010368;28;20065;-87
2023/07/30 12:28:01;;;;;;;4.45;1.10;;;;;;;;;;4998852;28;20024;-86
2023/07/30 12:30:27;;;;;;;3.03;1.00;;;;;;;;;;5006555;28;20028;-87
2023/07/30 12:32:53;;;;;;;8.98;1.02;;;;;;;;;;4994356;28;20460;-87
2023/07/30 12:35:19;;;;;;;4.80;0.95;;;;;;;;;;4997975;28;20069;-87
2023/07/30 12:37:44;;;;;;;5.82;1.02;;;;;;;;;;5008137;28;20050;-87
2023/07/30 12:40:09;;;;;;;7.10;1.20;;;;;;;;;;4991720;28;20429;-87
2023/07/30 12:42:35;;;;;;;5.20;0.80;;;;;;;;;;5008864;28;20050;-87
2023/07/30 12:45:00;;;;;;;6.25;0.90;;;;;;;;;;5004463;28;20056;-88
2023/07/30 12:47:26;;;;;;;5.55;0.93;;;;;;;;;;4997480;28;20023;-87
2023/07/30 12:49:51;;;;;;;3.08;0.90;;;;;;;;;;5003686;28;20172;-86
2023/07/30 12:52:16;;;;;;;3.70;0.70;;;;;;;;;;5005653;28;20034;-87
2023/07/30 12:54:42;;;;;;;4.38;1.27;;;;;;;;;;5008669;28;20034;-87
2023/07/30 12:57:07;;;;;;;3.42;0.82;;;;;;;;;;4999063;28;20472;-87
2023/07/30 12:59:33;;;;;;;3.45;0.68;;;;;;;;;;4996469;28;20033;-88
2023/07/30 13:01:58;;;;;;;3.65;0.70;;;;;;;;;;5005626;28;20023;-87
2023/07/30 13:04:26;;;;;;;3.85;0.70;;;;;;;;;;5009275;28;20508;-87
2023/07/30 13:06:52;;;;;;;4.15;0.90;;;;;;;;;;5008484;28;20030;-86
2023/07/30 13:09:17;;;;;;;5.90;1.10;;;;;;;;;;4998921;28;20030;-87
2023/07/30 13:11:42;;;;;;;3.95;0.63;;;;;;;;;;5001785;28;20022;-86
2023/07/30 13:14:08;;;;;;;4.05;0.80;;;;;;;;;;5003851;28;20034;-87
2023/07/30 13:16:33;;;;;;;3.75;0.93;;;;;;;;;;4998875;28;20026;-86
2023/07/30 13:18:59;;;;;;;2.80;0.50;;;;;;;;;;5000054;28;20482;-87
2023/07/30 13:21:24;;;;;;;3.72;0.60;;;;;;;;;;5001033;28;20022;-87
2023/07/30 13:23:49;;;;;;;5.25;0.70;;;;;;;;;;4998286;28;20026;-77
2023/07/30 13:26:15;;;;;;;6.72;0.90;;;;;;;;;;5000282;28;20022;-77
2023/07/30 13:28:40;;;;;;;2.65;0.60;;;;;;;;;;4994422;28;20085;-78
2023/07/30 13:31:06;;;;;;;3.55;0.60;;;;;;;;;;4987076;28;20052;-77
2023/07/30 13:33:31;;;;;;;5.32;0.70;;;;;;;;;;5000404;28;20168;-77
2023/07/30 13:35:56;;;;;;;2.40;0.70;;;;;;;;;;4998929;28;20108;-77
2023/07/30 13:38:22;;;;;;;4.03;0.80;;;;;;;;;;4998543;28;20027;-77
2023/07/30 13:40:47;;;;;;;2.17;0.60;;;;;;;;;;4992974;28;20143;-77
2023/07/30 13:43:13;;;;;;;2.22;0.63;;;;;;;;;;4994645;28;20029;-77
2023/07/30 13:45:38;;;;;;;4.40;0.70;;;;;;;;;;5001827;28;20014;-77
2023/07/30 13:48:04;;;;;;;2.53;0.60;;;;;;;;;;4991534;28;20076;-77
2023/07/30 13:50:29;;;;;;;4.53;0.90;;;;;;;;;;5003328;28;20029;-76
2023/07/30 13:52:55;;;;;;;4.47;0.80;;;;;;;;;;5000014;28;20054;-78
2023/07/30 13:55:20;;;;;;;6.00;1.33;;;;;;;;;;4991849;28;20030;-77
2023/07/30 13:57:45;;;;;;;2.72;0.60;;;;;;;;;;4999033;28;20375;-77
2023/07/30 14:00:12;;;;;;;4.90;0.80;;;;;;;;;;5002298;28;20473;-77
2023/07/30 14:02:37;;;;;;;6.45;0.80;;;;;;;;;;5000600;28;20029;-77
2023/07/30 14:05:03;;;;;;;3.70;0.70;;;;;;;;;;4991122;28;20073;-77
2023/07/30 14:07:28;;;;;;;3.42;0.70;;;;;;;;;;5000469;28;20072;-77
2023/07/30 14:09:54;;;;;;;3.00;0.70;;;;;;;;;;4992533;28;20114;-77
2023/07/30 14:12:19;;;;;;;3.33;0.82;;;;;;;;;;4994648;28;20671;-77
2023/07/30 14:14:44;;;;;;;5.18;0.88;;;;;;;;;;4985764;28;20429;-78
2023/07/30 14:17:11;;;;;;;4.00;0.90;;;;;;;;;;4996580;28;20104;-77
2023/07/30 14:19:36;;;;;;;3.90;1.00;;;;;;;;;;4996105;28;20448;-78
2023/07/30 14:22:01;;;;;;;19.23;1.65;;;;;;;;;;4998090;28;20014;-77
2023/07/30 14:24:27;;;;;;;3.33;0.98;;;;;;;;;;4996125;28;20022;-78
2023/07/30 14:26:53;;;;;;;3.70;0.80;;;;;;;;;;5001457;28;20030;-77
2023/07/30 14:29:18;;;;;;;5.13;1.02;;;;;;;;;;4987621;28;20089;-78
2023/07/30 14:31:44;;;;;;;11.75;1.65;;;;;;;;;;5006510;28;20018;-78